메인 페이지
METAR-TAF:

METAR-TAF

공항 :

조모 케냐타 국제공항

나이로비, 케냐

위도: 01-19S, 경도: 036-55E, 고도: 1624m

현재 날씨관측

예보는 32분 전, 22:30시(UTC)에 발표되었습니다.
서북서4kt
온도 17°C
습도 94%
기압 1023 hPa
시정 10km 이상
고도 1100ft 상공 구름 조금
고도 1800ft 상공 구름 많음

METAR: HKJK 282230Z 29004KT 9999 FEW011 BKN018 17/16 Q1023 NOSIG

시각: 02:02 (23:02 UTC)

예보

예보는 12 시간 2분 전, 11:00시(UTC)에 발표되었습니다.
예보 대상 시간: 28일 06시부터 29일 18시까지 (UTC)
남남동5kt
시정 10km 이상
고도 2600ft 상공 구름 보통
전환 중
28일 20시부터 28일 23시까지 (UTC)
북북동5kt
고도 800ft 상공 구름 조금
고도 1700ft 상공 구름 보통
전환 중
29일 08시부터 29일 11시까지 (UTC)
남남동5kt
고도 2400ft 상공 구름 보통

TAF: HKJK 281100Z 2806/2918 16005KT 9999 SCT026 BECMG 2820/2823 03005KT FEW008 SCT017 BECMG 2908/2911 16005KT SCT024

4,000개 이상의 공항 관측 자료 및 예보 (METAR 및 TAF 보고).

지도상에서 검색 가능한 기상관측소가 노란 점과 빨간 점으로 표시되어 있습니다.

기상관측소 명을 보려면 표시 위로 마우스를 이동하세요.

날씨 관측과 예보를 보려면 클릭하세요.

지도 변경 : 확대하려면 엑스 표시가 있는 녹색 버튼, 축소하려면 빼기 표시가 있는 녹색 버튼, 다음 페이지의 지도를 보려면 녹색 화살표를 클릭하세요.


METAR-TAF: